sensor_id;sensor_type;location;lat;lon;timestamp;P1;durP1;ratioP1;P2;durP2;ratioP2
57291;SDS011;43144;50.972;18.220;2023-04-25T00:07:43;9.60;;;8.90;;
57291;SDS011;43144;50.972;18.220;2023-04-25T00:17:34;7.80;;;7.00;;
57291;SDS011;43144;50.972;18.220;2023-04-25T00:34:44;8.40;;;7.20;;
57291;SDS011;43144;50.972;18.220;2023-04-25T00:42:06;9.30;;;8.50;;
57291;SDS011;43144;50.972;18.220;2023-04-25T00:51:55;8.60;;;7.90;;
57291;SDS011;43144;50.972;18.220;2023-04-25T01:01:47;4.00;;;3.70;;
57291;SDS011;43144;50.972;18.220;2023-04-25T01:11:36;2.70;;;1.80;;
57291;SDS011;43144;50.972;18.220;2023-04-25T01:21:26;3.20;;;3.00;;
57291;SDS011;43144;50.972;18.220;2023-04-25T01:31:15;2.10;;;2.00;;
57291;SDS011;43144;50.972;18.220;2023-04-25T01:41:05;1.20;;;1.20;;
57291;SDS011;43144;50.972;18.220;2023-04-25T01:58:15;1.50;;;1.40;;
57291;SDS011;43144;50.972;18.220;2023-04-25T02:08:05;6.10;;;5.60;;
57291;SDS011;43144;50.972;18.220;2023-04-25T02:17:56;9.50;;;5.00;;
57291;SDS011;43144;50.972;18.220;2023-04-25T02:27:45;3.10;;;2.90;;
57291;SDS011;43144;50.972;18.220;2023-04-25T02:37:36;3.00;;;2.90;;
57291;SDS011;43144;50.972;18.220;2023-04-25T02:47:27;3.30;;;3.10;;
57291;SDS011;43144;50.972;18.220;2023-04-25T02:57:16;6.20;;;5.80;;
57291;SDS011;43144;50.972;18.220;2023-04-25T03:07:06;7.40;;;7.00;;
57291;SDS011;43144;50.972;18.220;2023-04-25T03:24:17;6.30;;;5.90;;
57291;SDS011;43144;50.972;18.220;2023-04-25T03:41:27;8.90;;;8.40;;
57291;SDS011;43144;50.972;18.220;2023-04-25T03:51:16;6.80;;;6.30;;
57291;SDS011;43144;50.972;18.220;2023-04-25T04:01:05;3.10;;;2.80;;
57291;SDS011;43144;50.972;18.220;2023-04-25T04:08:28;3.40;;;2.70;;
57291;SDS011;43144;50.972;18.220;2023-04-25T04:18:17;6.70;;;6.30;;
57291;SDS011;43144;50.972;18.220;2023-04-25T04:35:27;7.40;;;6.80;;
57291;SDS011;43144;50.972;18.220;2023-04-25T04:45:16;18.10;;;7.30;;
57291;SDS011;43144;50.972;18.220;2023-04-25T04:55:07;9.90;;;9.10;;
57291;SDS011;43144;50.972;18.220;2023-04-25T05:04:58;11.30;;;9.80;;
57291;SDS011;43144;50.972;18.220;2023-04-25T05:14:47;7.10;;;6.50;;
57291;SDS011;43144;50.972;18.220;2023-04-25T05:24:36;9.60;;;8.40;;
57291;SDS011;43144;50.972;18.220;2023-04-25T05:34:26;7.50;;;6.90;;
57291;SDS011;43144;50.972;18.220;2023-04-25T05:44:17;7.30;;;6.00;;
57291;SDS011;43144;50.972;18.220;2023-04-25T05:54:06;6.30;;;6.00;;
57291;SDS011;43144;50.972;18.220;2023-04-25T06:03:56;5.30;;;5.00;;
57291;SDS011;43144;50.972;18.220;2023-04-25T06:13:56;12.90;;;8.20;;
57291;SDS011;43144;50.972;18.220;2023-04-25T06:23:46;2.20;;;2.10;;
57291;SDS011;43144;50.972;18.220;2023-04-25T06:33:36;6.40;;;6.00;;
57291;SDS011;43144;50.972;18.220;2023-04-25T06:43:26;5.90;;;5.50;;
57291;SDS011;43144;50.972;18.220;2023-04-25T06:53:15;6.50;;;6.00;;
57291;SDS011;43144;50.972;18.220;2023-04-25T07:03:04;9.00;;;4.90;;
57291;SDS011;43144;50.972;18.220;2023-04-25T07:05:33;7.20;;;6.50;;
57291;SDS011;43144;50.972;18.220;2023-04-25T07:15:24;6.30;;;5.90;;
57291;SDS011;43144;50.972;18.220;2023-04-25T07:25:13;6.50;;;5.90;;
57291;SDS011;43144;50.972;18.220;2023-04-25T07:35:06;11.40;;;5.80;;
57291;SDS011;43144;50.972;18.220;2023-04-25T07:44:58;25.20;;;6.40;;
57291;SDS011;43144;50.972;18.220;2023-04-25T07:54:48;5.00;;;4.70;;
57291;SDS011;43144;50.972;18.220;2023-04-25T08:04:38;6.00;;;5.60;;
57291;SDS011;43144;50.972;18.220;2023-04-25T08:14:36;13.20;;;10.10;;
57291;SDS011;43144;50.972;18.220;2023-04-25T08:24:25;12.00;;;6.40;;
57291;SDS011;43144;50.972;18.220;2023-04-25T08:34:15;5.50;;;5.00;;
57291;SDS011;43144;50.972;18.220;2023-04-25T08:44:10;6.20;;;4.60;;
57291;SDS011;43144;50.972;18.220;2023-04-25T08:54:07;2.50;;;2.30;;
57291;SDS011;43144;50.972;18.220;2023-04-25T09:03:58;5.50;;;3.80;;
57291;SDS011;43144;50.972;18.220;2023-04-25T09:13:49;12.00;;;4.70;;
57291;SDS011;43144;50.972;18.220;2023-04-25T09:38:30;4.60;;;3.60;;
57291;SDS011;43144;50.972;18.220;2023-04-25T09:48:22;3.20;;;2.90;;
57291;SDS011;43144;50.972;18.220;2023-04-25T09:58:25;5.00;;;4.00;;
57291;SDS011;43144;50.972;18.220;2023-04-25T10:08:19;5.40;;;2.90;;
57291;SDS011;43144;50.972;18.220;2023-04-25T10:25:48;3.90;;;3.60;;
57291;SDS011;43144;50.972;18.220;2023-04-25T10:35:59;6.10;;;4.70;;
57291;SDS011;43144;50.972;18.220;2023-04-25T10:46:01;6.00;;;4.50;;
57291;SDS011;43144;50.972;18.220;2023-04-25T10:56:12;4.50;;;4.10;;
57291;SDS011;43144;50.972;18.220;2023-04-25T11:06:11;4.30;;;3.90;;
57291;SDS011;43144;50.972;18.220;2023-04-25T11:16:09;9.60;;;4.50;;
57291;SDS011;43144;50.972;18.220;2023-04-25T11:26:01;4.40;;;4.10;;
57291;SDS011;43144;50.972;18.220;2023-04-25T11:43:12;26.60;;;3.90;;
57291;SDS011;43144;50.972;18.220;2023-04-25T11:53:01;7.30;;;4.60;;
57291;SDS011;43144;50.972;18.220;2023-04-25T12:02:53;1.90;;;1.90;;
57291;SDS011;43144;50.972;18.220;2023-04-25T13:44:57;3.30;;;3.00;;
57291;SDS011;43144;50.972;18.220;2023-04-25T13:54:49;2.40;;;2.20;;
57291;SDS011;43144;50.972;18.220;2023-04-25T14:04:38;1.00;;;1.00;;
57291;SDS011;43144;50.972;18.220;2023-04-25T14:14:28;2.20;;;1.90;;
57291;SDS011;43144;50.972;18.220;2023-04-25T14:31:40;4.50;;;1.70;;
57291;SDS011;43144;50.972;18.220;2023-04-25T14:41:30;7.60;;;2.40;;
57291;SDS011;43144;50.972;18.220;2023-04-25T14:51:21;1.50;;;1.40;;
57291;SDS011;43144;50.972;18.220;2023-04-25T15:01:10;2.50;;;2.30;;
57291;SDS011;43144;50.972;18.220;2023-04-25T15:11:01;2.30;;;2.20;;
57291;SDS011;43144;50.972;18.220;2023-04-25T15:20:50;1.90;;;1.80;;
57291;SDS011;43144;50.972;18.220;2023-04-25T15:30:40;1.70;;;1.60;;
57291;SDS011;43144;50.972;18.220;2023-04-25T15:40:31;3.40;;;2.60;;
57291;SDS011;43144;50.972;18.220;2023-04-25T15:50:22;3.10;;;2.90;;
57291;SDS011;43144;50.972;18.220;2023-04-25T16:00:13;4.40;;;4.10;;
57291;SDS011;43144;50.972;18.220;2023-04-25T16:10:06;2.20;;;2.00;;
57291;SDS011;43144;50.972;18.220;2023-04-25T16:27:18;4.20;;;3.80;;
57291;SDS011;43144;50.972;18.220;2023-04-25T16:37:07;4.90;;;4.50;;
57291;SDS011;43144;50.972;18.220;2023-04-25T16:46:56;7.10;;;6.40;;
57291;SDS011;43144;50.972;18.220;2023-04-25T16:56:46;5.10;;;4.80;;
57291;SDS011;43144;50.972;18.220;2023-04-25T17:06:36;1.50;;;1.40;;
57291;SDS011;43144;50.972;18.220;2023-04-25T17:16:28;4.70;;;4.30;;
57291;SDS011;43144;50.972;18.220;2023-04-25T17:33:43;10.20;;;5.30;;
57291;SDS011;43144;50.972;18.220;2023-04-25T17:43:34;6.20;;;5.80;;
57291;SDS011;43144;50.972;18.220;2023-04-25T17:53:24;6.60;;;6.20;;
57291;SDS011;43144;50.972;18.220;2023-04-25T18:03:14;5.40;;;5.00;;
57291;SDS011;43144;50.972;18.220;2023-04-25T18:13:04;4.70;;;4.40;;
57291;SDS011;43144;50.972;18.220;2023-04-25T18:22:54;4.40;;;4.10;;
57291;SDS011;43144;50.972;18.220;2023-04-25T18:32:46;4.10;;;3.80;;
57291;SDS011;43144;50.972;18.220;2023-04-25T18:42:36;7.30;;;6.70;;
57291;SDS011;43144;50.972;18.220;2023-04-25T19:07:08;3.50;;;3.00;;
57291;SDS011;43144;50.972;18.220;2023-04-25T19:16:58;7.50;;;6.10;;
57291;SDS011;43144;50.972;18.220;2023-04-25T19:24:20;10.00;;;7.90;;
57291;SDS011;43144;50.972;18.220;2023-04-25T19:34:13;8.30;;;6.70;;
57291;SDS011;43144;50.972;18.220;2023-04-25T19:44:03;8.10;;;7.50;;
57291;SDS011;43144;50.972;18.220;2023-04-25T19:53:53;7.80;;;5.00;;
57291;SDS011;43144;50.972;18.220;2023-04-25T20:11:04;13.30;;;7.70;;
57291;SDS011;43144;50.972;18.220;2023-04-25T20:20:54;23.10;;;7.30;;
57291;SDS011;43144;50.972;18.220;2023-04-25T20:30:43;9.60;;;6.90;;
57291;SDS011;43144;50.972;18.220;2023-04-25T20:40:33;12.20;;;6.30;;
57291;SDS011;43144;50.972;18.220;2023-04-25T20:50:23;14.60;;;6.80;;
57291;SDS011;43144;50.972;18.220;2023-04-25T21:22:17;10.60;;;9.50;;
57291;SDS011;43144;50.972;18.220;2023-04-25T21:32:06;20.30;;;11.70;;
57291;SDS011;43144;50.972;18.220;2023-04-25T21:41:55;17.40;;;15.70;;
57291;SDS011;43144;50.972;18.220;2023-04-25T21:59:06;5.50;;;5.20;;
57291;SDS011;43144;50.972;18.220;2023-04-25T22:08:55;39.00;;;13.20;;
57291;SDS011;43144;50.972;18.220;2023-04-25T22:18:45;32.90;;;13.70;;
57291;SDS011;43144;50.972;18.220;2023-04-25T22:26:07;22.20;;;14.90;;
57291;SDS011;43144;50.972;18.220;2023-04-25T22:35:56;13.20;;;12.10;;
57291;SDS011;43144;50.972;18.220;2023-04-25T22:45:46;24.40;;;18.80;;
57291;SDS011;43144;50.972;18.220;2023-04-25T22:55:35;24.80;;;15.50;;
57291;SDS011;43144;50.972;18.220;2023-04-25T23:05:26;12.80;;;11.60;;
57291;SDS011;43144;50.972;18.220;2023-04-25T23:15:15;17.00;;;11.90;;
57291;SDS011;43144;50.972;18.220;2023-04-25T23:25:07;29.50;;;16.80;;
57291;SDS011;43144;50.972;18.220;2023-04-25T23:34:58;23.90;;;16.30;;
57291;SDS011;43144;50.972;18.220;2023-04-25T23:52:07;23.90;;;11.10;;
